createdAt,value
2022-09-12T00:02:16.916Z,11.62
2022-09-12T00:17:20.079Z,11.65
2022-09-12T00:32:23.353Z,11.62
2022-09-12T00:47:33.043Z,11.48
2022-09-12T01:02:36.226Z,11.22
2022-09-12T01:18:13.891Z,11.15
2022-09-12T01:33:34.390Z,11.13
2022-09-12T01:48:46.117Z,11.08
2022-09-12T02:03:59.015Z,11.02
2022-09-12T02:19:13.099Z,10.99
2022-09-12T02:34:49.550Z,10.95
2022-09-12T02:49:54.224Z,10.85
2022-09-12T03:05:26.616Z,10.79
2022-09-12T03:20:49.855Z,10.78
2022-09-12T03:35:53.780Z,10.73
2022-09-12T03:51:00.817Z,10.68
2022-09-12T04:06:03.996Z,10.73
2022-09-12T04:21:10.398Z,10.76
2022-09-12T04:36:18.252Z,10.75
2022-09-12T04:51:28.054Z,10.78
2022-09-12T05:06:34.694Z,10.86
2022-09-12T05:21:38.183Z,11.03
2022-09-12T05:36:41.775Z,11.35
2022-09-12T05:51:46.396Z,11.74
2022-09-12T06:06:50.432Z,12.38
2022-09-12T06:21:54.209Z,13.16
2022-09-12T06:36:58.213Z,13.84
2022-09-12T06:52:01.644Z,14.91
2022-09-12T07:07:06.020Z,16.07
2022-09-12T07:22:09.222Z,17.26
2022-09-12T07:37:12.523Z,18.11
2022-09-12T07:52:15.756Z,18.80
2022-09-12T08:07:19.406Z,19.13
2022-09-12T08:22:23.324Z,19.35
2022-09-12T08:37:29.965Z,19.00
2022-09-12T08:53:02.791Z,18.72
2022-09-12T09:08:36.283Z,18.66
2022-09-12T09:23:45.021Z,19.13
2022-09-12T09:39:06.746Z,19.82
2022-09-12T09:54:50.279Z,20.05
2022-09-12T10:10:18.516Z,19.69
2022-09-12T10:25:25.994Z,19.19
2022-09-12T10:40:39.467Z,19.54
2022-09-12T10:56:09.231Z,20.69
2022-09-12T11:11:56.811Z,21.32
2022-09-12T11:27:30.905Z,23.13
2022-09-12T11:42:39.147Z,22.77
2022-09-12T11:57:42.517Z,21.37
2022-09-12T12:12:46.842Z,23.22
2022-09-12T12:27:54.812Z,22.53
2022-09-12T12:43:03.933Z,21.12
2022-09-12T12:58:20.324Z,20.30
2022-09-12T13:13:29.007Z,20.83
2022-09-12T13:28:32.754Z,21.89
2022-09-12T13:43:41.980Z,22.99
2022-09-12T13:58:58.190Z,23.71
2022-09-12T14:14:07.078Z,22.42
2022-09-12T14:29:15.225Z,21.59
2022-09-12T14:44:24.633Z,20.85
2022-09-12T14:59:40.418Z,20.79
2022-09-12T15:14:44.038Z,20.24
2022-09-12T15:29:47.984Z,21.50
2022-09-12T15:44:53.872Z,28.82
2022-09-12T15:59:57.929Z,28.11
2022-09-12T16:15:01.542Z,34.09
2022-09-12T16:30:07.800Z,30.74
2022-09-12T16:45:13.318Z,23.77
2022-09-12T17:00:17.447Z,20.84
2022-09-12T17:15:21.211Z,19.23
2022-09-12T17:30:25.315Z,18.09
2022-09-12T17:45:30.649Z,17.08
2022-09-12T18:00:54.760Z,16.07
2022-09-12T18:16:11.355Z,15.40
2022-09-12T18:31:18.742Z,14.90
2022-09-12T18:46:25.440Z,14.46
2022-09-12T19:01:32.838Z,14.00
2022-09-12T19:16:37.265Z,13.53
2022-09-12T19:31:40.789Z,13.21
2022-09-12T19:46:46.277Z,13.01
2022-09-12T20:01:50.334Z,12.61
2022-09-12T20:16:53.728Z,12.32
2022-09-12T20:31:57.108Z,12.07
2022-09-12T20:47:00.550Z,11.84
2022-09-12T21:02:04.137Z,11.58
2022-09-12T21:17:07.532Z,11.27
2022-09-12T21:32:14.063Z,11.16
2022-09-12T21:47:17.931Z,10.98
2022-09-12T22:02:23.151Z,10.76
2022-09-12T22:17:26.256Z,10.49
2022-09-12T22:32:29.243Z,10.34
2022-09-12T22:47:32.352Z,10.18
2022-09-12T23:02:35.415Z,9.91
2022-09-12T23:17:38.460Z,9.74
2022-09-12T23:32:41.485Z,9.59
2022-09-12T23:47:44.747Z,9.59
